createdAt,value
2023-04-22T00:00:11.414Z,0.00
2023-04-22T00:01:11.394Z,0.00
2023-04-22T00:02:11.421Z,0.00
2023-04-22T00:03:11.580Z,0.00
2023-04-22T00:04:11.600Z,0.00
2023-04-22T00:05:11.430Z,0.00
2023-04-22T00:06:11.383Z,0.00
2023-04-22T00:07:11.393Z,0.00
2023-04-22T00:08:11.316Z,0.00
2023-04-22T00:09:11.340Z,0.00
2023-04-22T00:10:11.304Z,0.00
2023-04-22T00:11:11.283Z,0.00
2023-04-22T00:12:11.342Z,0.00
2023-04-22T00:13:11.272Z,0.00
2023-04-22T00:14:11.477Z,0.00
2023-04-22T00:15:11.229Z,0.00
2023-04-22T00:16:11.317Z,0.00
2023-04-22T00:17:11.216Z,0.00
2023-04-22T00:18:11.216Z,0.00
2023-04-22T00:19:11.225Z,0.00
2023-04-22T00:20:11.213Z,0.00
2023-04-22T00:21:11.173Z,0.00
2023-04-22T00:22:11.173Z,0.00
2023-04-22T00:23:11.159Z,0.00
2023-04-22T00:24:11.190Z,0.00
2023-04-22T00:25:11.148Z,0.00
2023-04-22T00:26:11.196Z,0.00
2023-04-22T00:27:11.116Z,0.00
2023-04-22T00:28:11.127Z,0.00
2023-04-22T00:29:11.119Z,0.00
2023-04-22T00:30:11.065Z,0.00
2023-04-22T00:31:11.153Z,0.00
2023-04-22T00:32:11.168Z,0.00
2023-04-22T00:33:11.099Z,0.00
2023-04-22T00:34:11.144Z,0.00
2023-04-22T00:35:11.061Z,0.00
2023-04-22T00:36:11.025Z,0.00
2023-04-22T00:37:11.002Z,0.00
2023-04-22T00:38:11.029Z,0.00
2023-04-22T00:39:11.010Z,0.00
2023-04-22T00:40:10.986Z,0.00
2023-04-22T00:41:10.980Z,0.00
2023-04-22T00:42:10.940Z,0.00
2023-04-22T00:43:10.928Z,0.00
2023-04-22T00:44:10.991Z,0.00
2023-04-22T00:45:10.922Z,0.00
2023-04-22T00:46:10.917Z,0.00
2023-04-22T00:47:10.921Z,0.00
2023-04-22T00:48:10.898Z,0.00
2023-04-22T00:49:10.941Z,0.00
2023-04-22T00:50:10.862Z,0.00
2023-04-22T00:51:10.899Z,0.00
2023-04-22T00:52:10.829Z,0.00
2023-04-22T00:53:10.861Z,0.00
2023-04-22T00:54:10.863Z,0.00
2023-04-22T00:55:10.870Z,0.00
2023-04-22T00:56:10.789Z,0.00
2023-04-22T00:57:10.835Z,0.00
2023-04-22T00:58:10.766Z,0.00
2023-04-22T00:59:10.815Z,0.00
2023-04-22T01:00:10.789Z,0.00
2023-04-22T01:01:10.923Z,0.00
2023-04-22T01:02:10.845Z,0.00
2023-04-22T01:03:10.861Z,0.00
2023-04-22T01:04:10.957Z,0.00
2023-04-22T01:05:10.801Z,0.00
2023-04-22T01:06:10.989Z,0.00
2023-04-22T01:07:10.756Z,0.00
2023-04-22T01:08:10.685Z,0.00
2023-04-22T01:09:10.682Z,0.00
2023-04-22T01:10:10.677Z,0.00
2023-04-22T01:11:10.775Z,0.00
2023-04-22T01:12:10.647Z,0.00
2023-04-22T01:13:10.733Z,0.00
2023-04-22T01:14:10.625Z,0.00
2023-04-22T01:15:10.618Z,0.00
2023-04-22T01:16:10.612Z,0.00
2023-04-22T01:17:10.581Z,0.00
2023-04-22T01:18:10.572Z,0.00
2023-04-22T01:19:10.618Z,0.00
2023-04-22T01:20:10.761Z,0.00
2023-04-22T01:21:10.535Z,0.00
2023-04-22T01:22:10.519Z,0.00
2023-04-22T01:23:10.632Z,0.00
2023-04-22T01:24:10.529Z,0.00
2023-04-22T01:25:10.529Z,0.00
2023-04-22T01:26:10.489Z,0.00
2023-04-22T01:27:10.475Z,0.00
2023-04-22T01:28:10.458Z,0.00
2023-04-22T01:29:10.499Z,0.00
2023-04-22T01:30:10.464Z,0.00
2023-04-22T01:31:10.444Z,0.00
2023-04-22T01:32:10.441Z,0.00
2023-04-22T01:33:10.527Z,0.00
2023-04-22T01:34:10.414Z,0.00
2023-04-22T01:35:10.416Z,0.00
2023-04-22T01:36:13.086Z,0.00
2023-04-22T01:37:10.429Z,0.00
2023-04-22T01:38:10.354Z,0.00
2023-04-22T01:39:10.363Z,0.00
2023-04-22T01:40:10.409Z,0.00
2023-04-22T01:41:10.334Z,0.00
2023-04-22T01:42:10.343Z,0.00
2023-04-22T01:43:10.312Z,0.00
2023-04-22T01:44:10.307Z,0.00
2023-04-22T01:45:10.273Z,0.00
2023-04-22T01:46:10.320Z,0.00
2023-04-22T01:47:10.281Z,0.00
2023-04-22T01:48:10.282Z,0.00
2023-04-22T01:49:10.258Z,0.00
2023-04-22T01:50:10.232Z,0.00
2023-04-22T01:51:10.284Z,0.00
2023-04-22T01:52:10.224Z,0.00
2023-04-22T01:53:10.227Z,0.00
2023-04-22T01:54:10.216Z,0.00
2023-04-22T01:55:10.179Z,0.00
2023-04-22T01:56:10.175Z,0.00
2023-04-22T01:57:10.151Z,0.00
2023-04-22T01:58:10.222Z,0.00
2023-04-22T01:59:10.155Z,0.00
2023-04-22T02:00:10.134Z,0.00
2023-04-22T02:01:10.213Z,0.00
2023-04-22T02:02:10.190Z,0.00
2023-04-22T02:03:10.199Z,0.00
2023-04-22T02:04:10.110Z,0.00
2023-04-22T02:05:10.150Z,0.00
2023-04-22T02:06:10.133Z,0.00
2023-04-22T02:07:10.054Z,0.00
2023-04-22T02:08:10.135Z,0.00
2023-04-22T02:09:10.101Z,0.00
2023-04-22T02:10:10.048Z,0.00
2023-04-22T02:11:10.007Z,0.00
2023-04-22T02:12:10.012Z,0.00
2023-04-22T02:13:10.037Z,0.00
2023-04-22T02:14:10.001Z,0.00
2023-04-22T02:15:09.965Z,0.00
2023-04-22T02:16:10.119Z,0.00
2023-04-22T02:17:09.969Z,0.00
2023-04-22T02:18:09.933Z,0.00
2023-04-22T02:19:09.952Z,0.00
2023-04-22T02:20:09.943Z,0.00
2023-04-22T02:21:09.906Z,0.00
2023-04-22T02:22:09.911Z,0.00
2023-04-22T02:23:09.910Z,0.00
2023-04-22T02:24:09.904Z,0.00
2023-04-22T02:25:09.849Z,0.00
2023-04-22T02:26:09.902Z,0.00
2023-04-22T02:27:09.856Z,0.00
2023-04-22T02:28:09.835Z,0.00
2023-04-22T02:29:09.830Z,0.00
2023-04-22T02:30:09.842Z,0.00
2023-04-22T02:31:09.876Z,0.00
2023-04-22T02:32:09.793Z,0.00
2023-04-22T02:33:09.806Z,0.00
2023-04-22T02:34:09.860Z,0.00
2023-04-22T02:35:09.768Z,0.00
2023-04-22T02:36:09.750Z,0.00
2023-04-22T02:37:09.769Z,0.00
2023-04-22T02:38:09.714Z,0.00
2023-04-22T02:39:09.737Z,0.00
2023-04-22T02:40:09.803Z,0.00
2023-04-22T02:41:09.740Z,0.00
2023-04-22T02:42:09.690Z,0.00
2023-04-22T02:43:09.688Z,0.00
2023-04-22T02:44:09.656Z,0.00
2023-04-22T02:45:09.653Z,0.00
2023-04-22T02:46:09.667Z,0.00
2023-04-22T02:47:09.649Z,0.00
2023-04-22T02:48:09.685Z,0.00
2023-04-22T02:49:09.612Z,0.00
2023-04-22T02:50:09.645Z,0.00
2023-04-22T02:51:09.592Z,0.00
2023-04-22T02:52:09.591Z,0.00
2023-04-22T02:53:09.554Z,0.00
2023-04-22T02:54:09.573Z,0.00
2023-04-22T02:55:09.592Z,0.00
2023-04-22T02:56:09.549Z,0.00
2023-04-22T02:57:09.507Z,0.00
2023-04-22T02:58:09.517Z,0.00
2023-04-22T02:59:09.499Z,0.00
2023-04-22T03:00:09.527Z,0.00
2023-04-22T03:01:09.551Z,0.00
2023-04-22T03:02:09.529Z,0.00
2023-04-22T03:03:09.593Z,0.00
2023-04-22T03:04:09.567Z,0.00
2023-04-22T03:05:09.438Z,0.00
2023-04-22T03:06:09.418Z,0.00
2023-04-22T03:07:09.409Z,0.00
2023-04-22T03:08:09.476Z,0.00
2023-04-22T03:09:09.425Z,0.00
2023-04-22T03:10:09.377Z,0.00
2023-04-22T03:11:09.461Z,0.00
2023-04-22T03:12:09.367Z,0.00
2023-04-22T03:13:09.402Z,0.00
2023-04-22T03:14:09.347Z,0.00
2023-04-22T03:15:09.353Z,0.00
2023-04-22T03:16:09.373Z,0.00
2023-04-22T03:17:09.312Z,0.00
2023-04-22T03:18:09.365Z,0.00
2023-04-22T03:19:09.287Z,0.00
2023-04-22T03:20:09.295Z,0.00
2023-04-22T03:21:09.265Z,0.00
2023-04-22T03:22:09.209Z,0.00
2023-04-22T03:23:09.201Z,0.00
2023-04-22T03:24:09.267Z,0.00
2023-04-22T03:25:09.252Z,0.00
2023-04-22T03:26:09.195Z,0.00
2023-04-22T03:27:09.154Z,0.00
2023-04-22T03:28:09.239Z,0.00
2023-04-22T03:29:09.151Z,0.00
2023-04-22T03:30:09.131Z,0.00
2023-04-22T03:31:09.119Z,0.00
2023-04-22T03:32:09.135Z,0.00
2023-04-22T03:33:09.235Z,0.00
2023-04-22T03:34:09.073Z,0.00
2023-04-22T03:35:09.061Z,0.00
2023-04-22T03:36:09.073Z,0.00
2023-04-22T03:37:09.057Z,0.00
2023-04-22T03:38:09.065Z,0.00
2023-04-22T03:39:09.042Z,0.00
2023-04-22T03:40:09.012Z,0.00
2023-04-22T03:41:08.996Z,0.00
2023-04-22T03:42:08.993Z,0.00
2023-04-22T03:43:09.017Z,0.00
2023-04-22T03:44:09.028Z,0.00
2023-04-22T03:45:08.959Z,0.00
2023-04-22T03:46:09.036Z,0.00
2023-04-22T03:47:08.932Z,0.00
2023-04-22T03:48:09.090Z,0.00
2023-04-22T03:49:08.914Z,0.00
2023-04-22T03:50:08.972Z,0.00
2023-04-22T03:51:08.960Z,0.00
2023-04-22T03:52:08.903Z,0.00
2023-04-22T03:53:08.892Z,0.00
2023-04-22T03:54:08.888Z,0.00
2023-04-22T03:55:08.900Z,0.00
2023-04-22T03:56:08.845Z,0.00
2023-04-22T03:57:08.838Z,0.00
2023-04-22T03:58:08.862Z,0.00
2023-04-22T03:59:08.810Z,0.00
2023-04-22T04:00:08.805Z,0.00
2023-04-22T04:01:08.840Z,0.00
2023-04-22T04:02:09.071Z,0.00
2023-04-22T04:03:09.209Z,0.00
2023-04-22T04:04:08.909Z,0.00
2023-04-22T04:05:09.077Z,0.00
2023-04-22T04:06:08.770Z,5.62
2023-04-22T04:07:08.771Z,5.62
2023-04-22T04:08:08.796Z,5.62
2023-04-22T04:09:08.701Z,5.62
2023-04-22T04:10:08.724Z,5.62
2023-04-22T04:11:08.715Z,5.62
2023-04-22T04:12:08.689Z,5.62
2023-04-22T04:13:08.767Z,5.62
2023-04-22T04:14:08.648Z,5.62
2023-04-22T04:15:08.663Z,5.62
2023-04-22T04:16:08.656Z,5.62
2023-04-22T04:17:08.626Z,5.62
2023-04-22T04:18:08.776Z,5.62
2023-04-22T04:19:09.105Z,5.62
2023-04-22T04:20:08.594Z,5.62
2023-04-22T04:21:08.651Z,11.25
2023-04-22T04:22:08.564Z,11.25
2023-04-22T04:23:08.554Z,11.25
2023-04-22T04:24:08.579Z,11.25
2023-04-22T04:25:08.529Z,11.25
2023-04-22T04:26:08.572Z,11.25
2023-04-22T04:27:08.506Z,11.25
2023-04-22T04:28:08.571Z,11.25
2023-04-22T04:29:08.494Z,11.25
2023-04-22T04:30:08.505Z,11.25
2023-04-22T04:31:08.523Z,11.25
2023-04-22T04:32:08.499Z,11.25
2023-04-22T04:33:08.778Z,11.25
2023-04-22T04:34:09.410Z,11.25
2023-04-22T04:35:08.443Z,16.88
2023-04-22T04:36:08.408Z,16.88
2023-04-22T04:37:08.407Z,16.88
2023-04-22T04:38:08.401Z,16.88
2023-04-22T04:39:08.379Z,16.88
2023-04-22T04:40:08.379Z,16.88
2023-04-22T04:41:08.380Z,16.88
2023-04-22T04:42:08.354Z,16.88
2023-04-22T04:43:08.427Z,16.88
2023-04-22T04:44:08.335Z,16.88
2023-04-22T04:45:08.371Z,16.88
2023-04-22T04:46:08.460Z,16.88
2023-04-22T04:47:08.328Z,16.88
2023-04-22T04:48:08.392Z,16.88
2023-04-22T04:49:08.272Z,22.50
2023-04-22T04:50:08.272Z,22.50
2023-04-22T04:51:08.259Z,22.50
2023-04-22T04:52:08.282Z,22.50
2023-04-22T04:53:08.239Z,22.50
2023-04-22T04:54:08.222Z,22.50
2023-04-22T04:55:08.203Z,22.50
2023-04-22T04:56:08.245Z,22.50
2023-04-22T04:57:08.211Z,22.50
2023-04-22T04:58:08.174Z,22.50
2023-04-22T04:59:08.164Z,22.50
2023-04-22T05:00:08.170Z,22.50
2023-04-22T05:01:08.134Z,22.50
2023-04-22T05:02:08.465Z,28.12
2023-04-22T05:03:08.562Z,28.12
2023-04-22T05:04:08.316Z,28.12
2023-04-22T05:05:08.109Z,28.12
2023-04-22T05:06:08.119Z,28.12
2023-04-22T05:07:08.104Z,28.12
2023-04-22T05:08:08.091Z,28.12
2023-04-22T05:09:08.360Z,28.12
2023-04-22T05:10:08.109Z,28.12
2023-04-22T05:11:08.035Z,28.12
2023-04-22T05:12:08.096Z,28.12
2023-04-22T05:13:08.031Z,28.12
2023-04-22T05:14:08.069Z,28.12
2023-04-22T05:15:08.052Z,28.12
2023-04-22T05:16:08.175Z,33.75
2023-04-22T05:17:08.113Z,33.75
2023-04-22T05:18:08.065Z,33.75
2023-04-22T05:19:07.960Z,33.75
2023-04-22T05:20:08.040Z,33.75
2023-04-22T05:21:07.943Z,33.75
2023-04-22T05:22:07.945Z,33.75
2023-04-22T05:23:07.914Z,33.75
2023-04-22T05:24:07.920Z,33.75
2023-04-22T05:25:07.918Z,33.75
2023-04-22T05:26:07.878Z,33.75
2023-04-22T05:27:07.905Z,33.75
2023-04-22T05:28:07.890Z,33.75
2023-04-22T05:29:07.901Z,33.75
2023-04-22T05:30:07.849Z,33.75
2023-04-22T05:31:08.071Z,33.75
2023-04-22T05:32:07.965Z,33.75
2023-04-22T05:33:07.904Z,39.38
2023-04-22T05:34:07.954Z,39.38
2023-04-22T05:35:07.858Z,39.38
2023-04-22T05:36:07.904Z,39.38
2023-04-22T05:37:07.886Z,39.38
2023-04-22T05:38:07.761Z,39.38
2023-04-22T05:39:07.936Z,39.38
2023-04-22T05:40:07.787Z,39.38
2023-04-22T05:41:07.900Z,39.38
2023-04-22T05:42:07.813Z,39.38
2023-04-22T05:43:07.734Z,39.38
2023-04-22T05:44:07.748Z,39.38
2023-04-22T05:45:07.734Z,39.38
2023-04-22T05:46:07.779Z,39.38
2023-04-22T05:47:07.821Z,39.38
2023-04-22T05:48:08.152Z,39.38
2023-04-22T05:49:07.710Z,39.38
2023-04-22T05:50:07.756Z,39.38
2023-04-22T05:51:07.711Z,39.38
2023-04-22T05:52:07.688Z,45.00
2023-04-22T05:53:07.719Z,45.00
2023-04-22T05:54:07.607Z,45.00
2023-04-22T05:55:07.594Z,45.00
2023-04-22T05:56:07.581Z,45.00
2023-04-22T05:57:08.181Z,45.00
2023-04-22T05:58:07.718Z,45.00
2023-04-22T05:59:07.602Z,45.00
2023-04-22T06:00:08.137Z,45.00
2023-04-22T06:01:07.681Z,45.00
2023-04-22T06:02:07.813Z,45.00
2023-04-22T06:03:07.792Z,45.00
2023-04-22T06:04:07.872Z,45.00
2023-04-22T06:05:07.955Z,45.00
2023-04-22T06:06:07.900Z,45.00
2023-04-22T06:07:07.722Z,45.00
2023-04-22T06:08:07.521Z,45.00
2023-04-22T06:09:07.504Z,45.00
2023-04-22T06:10:07.562Z,45.00
2023-04-22T06:11:07.492Z,45.00
2023-04-22T06:12:07.489Z,50.62
2023-04-22T06:13:07.446Z,50.62
2023-04-22T06:14:07.476Z,50.62
2023-04-22T06:15:07.416Z,50.62
2023-04-22T06:17:07.619Z,50.62
2023-04-22T06:18:07.385Z,50.62
2023-04-22T06:19:07.848Z,50.62
2023-04-22T06:20:07.357Z,50.62
2023-04-22T06:21:07.417Z,50.62
2023-04-22T06:22:07.395Z,50.62
2023-04-22T06:23:07.366Z,50.62
2023-04-22T06:24:07.334Z,50.62
2023-04-22T06:25:07.293Z,50.62
2023-04-22T06:26:07.679Z,50.62
2023-04-22T06:27:08.038Z,50.62
2023-04-22T06:28:07.281Z,50.62
2023-04-22T06:29:07.303Z,50.62
2023-04-22T06:30:07.236Z,56.25
2023-04-22T06:31:07.241Z,56.25
2023-04-22T06:32:07.277Z,56.25
2023-04-22T06:33:07.291Z,56.25
2023-04-22T06:34:07.170Z,56.25
2023-04-22T06:35:07.227Z,56.25
2023-04-22T06:36:07.294Z,56.25
2023-04-22T06:37:07.254Z,56.25
2023-04-22T06:38:07.275Z,56.25
2023-04-22T06:39:07.265Z,56.25
2023-04-22T06:40:07.165Z,56.25
2023-04-22T06:41:07.175Z,56.25
2023-04-22T06:42:07.179Z,61.88
2023-04-22T06:43:07.242Z,61.88
2023-04-22T06:44:07.140Z,61.88
2023-04-22T06:45:07.088Z,61.88
2023-04-22T06:46:07.146Z,61.88
2023-04-22T06:47:07.192Z,61.88
2023-04-22T06:48:07.058Z,61.88
2023-04-22T06:49:07.039Z,61.88
2023-04-22T06:50:07.046Z,61.88
2023-04-22T06:51:07.148Z,67.50
2023-04-22T06:52:07.009Z,67.50
2023-04-22T06:53:07.343Z,67.50
2023-04-22T06:54:07.040Z,67.50
2023-04-22T06:55:07.112Z,67.50
2023-04-22T06:56:07.478Z,67.50
2023-04-22T06:57:07.696Z,67.50
2023-04-22T06:58:06.969Z,67.50
2023-04-22T06:59:06.974Z,67.50
2023-04-22T07:00:07.185Z,67.50
2023-04-22T07:01:06.914Z,73.12
2023-04-22T07:02:07.088Z,73.12
2023-04-22T07:03:06.980Z,73.12
2023-04-22T07:04:07.241Z,73.12
2023-04-22T07:05:07.262Z,73.12
2023-04-22T07:06:07.190Z,73.12
2023-04-22T07:07:07.365Z,73.12
2023-04-22T07:08:06.861Z,73.12
2023-04-22T07:09:06.849Z,73.12
2023-04-22T07:10:07.010Z,73.12
2023-04-22T07:11:06.950Z,78.75
2023-04-22T07:12:07.277Z,78.75
2023-04-22T07:13:06.789Z,78.75
2023-04-22T07:14:06.863Z,78.75
2023-04-22T07:15:07.151Z,78.75
2023-04-22T07:16:06.760Z,78.75
2023-04-22T07:17:06.819Z,78.75
2023-04-22T07:18:06.840Z,78.75
2023-04-22T07:19:06.737Z,78.75
2023-04-22T07:20:06.860Z,78.75
2023-04-22T07:21:06.829Z,78.75
2023-04-22T07:22:07.041Z,84.38
2023-04-22T07:23:06.685Z,84.38
2023-04-22T07:24:06.723Z,84.38
2023-04-22T07:25:06.638Z,90.00
2023-04-22T07:26:06.686Z,90.00
2023-04-22T07:27:06.682Z,90.00
2023-04-22T07:28:06.633Z,90.00
2023-04-22T07:29:06.653Z,90.00
2023-04-22T07:30:06.608Z,90.00
2023-04-22T07:31:06.628Z,95.62
2023-04-22T07:32:06.713Z,95.62
2023-04-22T07:33:06.747Z,101.25
2023-04-22T07:34:06.882Z,101.25
2023-04-22T07:35:06.598Z,101.25
2023-04-22T07:36:06.575Z,106.88
2023-04-22T07:37:06.554Z,106.88
2023-04-22T07:38:07.389Z,106.88
2023-04-22T07:39:06.587Z,112.50
2023-04-22T07:40:06.500Z,112.50
2023-04-22T07:41:06.607Z,112.50
2023-04-22T07:42:06.513Z,118.12
2023-04-22T07:43:06.503Z,118.12
2023-04-22T07:44:06.534Z,118.12
2023-04-22T07:45:06.422Z,118.12
2023-04-22T07:46:06.453Z,123.75
2023-04-22T07:47:06.555Z,123.75
2023-04-22T07:48:06.456Z,123.75
2023-04-22T07:49:06.428Z,129.38
2023-04-22T07:50:06.487Z,129.38
2023-04-22T07:51:06.425Z,129.38
2023-04-22T07:52:06.462Z,129.38
2023-04-22T07:53:06.389Z,135.00
2023-04-22T07:54:06.357Z,129.38
2023-04-22T07:55:06.372Z,129.38
2023-04-22T07:56:06.426Z,135.00
2023-04-22T07:57:06.316Z,135.00
2023-04-22T07:58:07.095Z,135.00
2023-04-22T07:59:06.290Z,135.00
2023-04-22T08:00:06.338Z,140.62
2023-04-22T08:01:06.399Z,146.25
2023-04-22T08:02:06.585Z,146.25
2023-04-22T08:03:06.599Z,151.88
2023-04-22T08:04:06.456Z,151.88
2023-04-22T08:05:06.239Z,157.50
2023-04-22T08:06:06.184Z,157.50
2023-04-22T08:07:26.394Z,157.50
2023-04-22T08:08:06.292Z,163.12
2023-04-22T08:09:06.176Z,168.75
2023-04-22T08:10:06.129Z,168.75
2023-04-22T08:11:06.233Z,168.75
2023-04-22T08:12:06.137Z,163.12
2023-04-22T08:13:06.110Z,168.75
2023-04-22T08:14:06.118Z,168.75
2023-04-22T08:15:06.166Z,168.75
2023-04-22T08:16:06.120Z,163.12
2023-04-22T08:17:06.090Z,168.75
2023-04-22T08:18:06.064Z,174.38
2023-04-22T08:19:06.213Z,180.00
2023-04-22T08:20:07.897Z,241.88
2023-04-22T08:21:06.062Z,438.75
2023-04-22T08:22:06.057Z,523.12
2023-04-22T08:23:06.019Z,641.25
2023-04-22T08:24:06.058Z,703.12
2023-04-22T08:25:05.983Z,641.25
2023-04-22T08:26:05.968Z,500.62
2023-04-22T08:27:06.013Z,472.50
2023-04-22T08:28:05.954Z,523.12
2023-04-22T08:29:05.971Z,489.38
2023-04-22T08:30:05.942Z,489.38
2023-04-22T08:31:05.930Z,388.12
2023-04-22T08:32:05.929Z,337.50
2023-04-22T08:33:05.932Z,472.50
2023-04-22T08:34:05.892Z,433.12
2023-04-22T08:35:05.903Z,360.00
2023-04-22T08:36:05.931Z,388.12
2023-04-22T08:37:05.888Z,433.12
2023-04-22T08:38:05.853Z,382.50
2023-04-22T08:39:05.842Z,365.62
2023-04-22T08:40:05.845Z,472.50
2023-04-22T08:41:05.820Z,697.50
2023-04-22T08:42:05.841Z,568.12
2023-04-22T08:43:05.816Z,607.50
2023-04-22T08:44:05.824Z,511.88
2023-04-22T08:45:05.807Z,511.88
2023-04-22T08:46:05.907Z,658.12
2023-04-22T08:47:05.960Z,725.62
2023-04-22T08:48:05.766Z,607.50
2023-04-22T08:49:05.736Z,663.75
2023-04-22T08:50:05.735Z,714.38
2023-04-22T08:51:05.732Z,686.25
2023-04-22T08:52:05.703Z,765.00
2023-04-22T08:53:05.686Z,753.75
2023-04-22T08:54:05.712Z,680.62
2023-04-22T08:55:05.700Z,658.12
2023-04-22T08:56:05.698Z,635.62
2023-04-22T08:57:05.664Z,652.50
2023-04-22T08:58:05.637Z,691.88
2023-04-22T08:59:05.670Z,506.25
2023-04-22T09:00:05.687Z,354.38
2023-04-22T09:01:05.637Z,309.38
2023-04-22T09:02:05.665Z,472.50
2023-04-22T09:03:05.653Z,506.25
2023-04-22T09:04:05.687Z,511.88
2023-04-22T09:05:05.578Z,500.62
2023-04-22T09:07:01.408Z,286.88
2023-04-22T09:08:02.344Z,196.88
2023-04-22T09:09:02.314Z,196.88
2023-04-22T09:10:02.300Z,405.00
2023-04-22T09:11:02.314Z,551.25
2023-04-22T09:12:02.273Z,708.75
2023-04-22T09:13:02.281Z,753.75
2023-04-22T09:14:02.278Z,804.38
2023-04-22T09:15:02.252Z,793.12
2023-04-22T09:16:02.331Z,658.12
2023-04-22T09:17:02.229Z,607.50
2023-04-22T09:18:02.287Z,883.12
2023-04-22T09:19:02.227Z,916.88
2023-04-22T09:20:02.276Z,928.12
2023-04-22T09:21:02.169Z,928.12
2023-04-22T09:22:02.164Z,1035.00
2023-04-22T09:23:02.219Z,956.25
2023-04-22T09:24:02.167Z,883.12
2023-04-22T09:25:02.147Z,967.50
2023-04-22T09:26:02.205Z,978.75
2023-04-22T09:27:02.125Z,984.38
2023-04-22T09:28:02.103Z,860.62
2023-04-22T09:29:02.128Z,804.38
2023-04-22T09:30:02.082Z,787.50
2023-04-22T09:31:02.119Z,731.25
2023-04-22T09:32:02.108Z,742.50
2023-04-22T09:33:02.124Z,590.62
2023-04-22T09:34:02.063Z,241.88
2023-04-22T09:35:02.063Z,157.50
2023-04-22T09:36:02.038Z,157.50
2023-04-22T09:37:02.021Z,180.00
2023-04-22T09:38:02.030Z,500.62
2023-04-22T09:39:02.081Z,871.88
2023-04-22T09:40:02.022Z,933.75
2023-04-22T09:41:01.989Z,855.00
2023-04-22T09:42:02.026Z,843.75
2023-04-22T09:43:02.033Z,736.88
2023-04-22T09:44:01.953Z,652.50
2023-04-22T09:45:02.310Z,579.38
2023-04-22T09:46:02.069Z,686.25
2023-04-22T09:47:01.907Z,708.75
2023-04-22T09:48:01.934Z,753.75
2023-04-22T09:49:01.943Z,765.00
2023-04-22T09:50:01.952Z,742.50
2023-04-22T09:51:01.895Z,146.25
2023-04-22T09:52:01.864Z,635.62
2023-04-22T09:53:01.893Z,703.12
2023-04-22T09:54:01.846Z,669.38
2023-04-22T09:55:01.840Z,393.75
2023-04-22T09:56:01.868Z,230.62
2023-04-22T09:57:01.821Z,270.00
2023-04-22T09:58:01.857Z,303.75
2023-04-22T09:59:01.804Z,168.75
2023-04-22T10:00:01.797Z,191.25
2023-04-22T10:01:01.868Z,343.12
2023-04-22T10:02:01.757Z,472.50
2023-04-22T10:03:01.899Z,455.62
2023-04-22T10:04:01.899Z,180.00
2023-04-22T10:05:01.788Z,331.88
2023-04-22T10:06:02.149Z,613.12
2023-04-22T10:07:01.730Z,607.50
2023-04-22T10:08:01.777Z,562.50
2023-04-22T10:09:01.778Z,613.12
2023-04-22T10:10:01.698Z,573.75
2023-04-22T10:11:01.717Z,320.62
2023-04-22T10:12:01.667Z,163.12
2023-04-22T10:13:01.668Z,157.50
2023-04-22T10:14:01.654Z,202.50
2023-04-22T10:15:01.642Z,331.88
2023-04-22T10:16:01.639Z,545.62
2023-04-22T10:17:01.683Z,444.38
2023-04-22T10:18:01.640Z,556.88
2023-04-22T10:19:01.638Z,720.00
2023-04-22T10:20:01.582Z,826.88
2023-04-22T10:21:01.776Z,804.38
2023-04-22T10:22:01.578Z,736.88
2023-04-22T10:23:01.594Z,658.12
2023-04-22T10:24:01.549Z,669.38
2023-04-22T10:25:01.537Z,776.25
2023-04-22T10:26:01.546Z,810.00
2023-04-22T10:27:01.538Z,832.50
2023-04-22T10:28:01.498Z,787.50
2023-04-22T10:29:01.495Z,731.25
2023-04-22T10:30:01.551Z,658.12
2023-04-22T10:31:01.528Z,568.12
2023-04-22T10:32:01.484Z,579.38
2023-04-22T10:33:01.586Z,630.00
2023-04-22T10:34:01.492Z,641.25
2023-04-22T10:35:01.445Z,759.38
2023-04-22T10:36:01.419Z,765.00
2023-04-22T10:37:01.471Z,686.25
2023-04-22T10:38:01.429Z,663.75
2023-04-22T10:39:01.389Z,720.00
2023-04-22T10:40:01.380Z,720.00
2023-04-22T10:41:01.377Z,753.75
2023-04-22T10:42:01.376Z,618.75
2023-04-22T10:43:01.390Z,511.88
2023-04-22T10:44:01.346Z,545.62
2023-04-22T10:45:01.356Z,365.62
2023-04-22T10:46:01.363Z,213.75
2023-04-22T10:47:01.358Z,292.50
2023-04-22T10:48:01.349Z,174.38
2023-04-22T10:49:01.281Z,253.12
2023-04-22T10:50:01.299Z,320.62
2023-04-22T10:51:01.280Z,748.12
2023-04-22T10:52:01.314Z,860.62
2023-04-22T10:53:01.432Z,815.62
2023-04-22T10:54:01.239Z,714.38
2023-04-22T10:55:01.303Z,781.88
2023-04-22T10:56:01.234Z,556.88
2023-04-22T10:57:01.247Z,208.12
2023-04-22T10:58:01.212Z,191.25
2023-04-22T10:59:01.191Z,185.62
2023-04-22T11:00:01.263Z,180.00
2023-04-22T11:01:01.199Z,180.00
2023-04-22T11:02:01.240Z,185.62
2023-04-22T11:03:01.283Z,275.62
2023-04-22T11:04:01.294Z,630.00
2023-04-22T11:05:01.141Z,506.25
2023-04-22T11:06:01.155Z,168.75
2023-04-22T11:07:01.125Z,168.75
2023-04-22T11:08:01.108Z,151.88
2023-04-22T11:09:01.134Z,225.00
2023-04-22T11:10:01.100Z,348.75
2023-04-22T11:11:01.105Z,371.25
2023-04-22T11:12:01.091Z,444.38
2023-04-22T11:13:01.054Z,455.62
2023-04-22T11:14:01.062Z,585.00
2023-04-22T11:15:01.114Z,804.38
2023-04-22T11:16:01.080Z,1153.12
2023-04-22T11:17:01.018Z,1215.00
2023-04-22T11:18:01.091Z,1254.38
2023-04-22T11:19:00.987Z,1198.12
2023-04-22T11:20:01.010Z,1023.75
2023-04-22T11:21:00.987Z,1040.62
2023-04-22T11:22:00.964Z,1147.50
2023-04-22T11:23:00.955Z,1113.75
2023-04-22T11:24:00.953Z,838.12
2023-04-22T11:25:00.957Z,607.50
2023-04-22T11:26:00.941Z,675.00
2023-04-22T11:27:00.934Z,601.88
2023-04-22T11:28:00.911Z,652.50
2023-04-22T11:29:00.888Z,838.12
2023-04-22T11:30:00.896Z,950.62
2023-04-22T11:31:00.884Z,973.12
2023-04-22T11:32:00.921Z,680.62
2023-04-22T11:33:00.920Z,703.12
2023-04-22T11:34:00.871Z,658.12
2023-04-22T11:35:00.838Z,613.12
2023-04-22T11:36:00.844Z,613.12
2023-04-22T11:37:00.815Z,708.75
2023-04-22T11:38:00.815Z,866.25
2023-04-22T11:39:00.815Z,832.50
2023-04-22T11:41:00.793Z,770.62
2023-04-22T11:42:00.819Z,928.12
2023-04-22T11:43:00.757Z,967.50
2023-04-22T11:44:00.769Z,911.25
2023-04-22T11:45:00.776Z,894.38
2023-04-22T11:46:00.826Z,742.50
2023-04-22T11:47:00.727Z,855.00
2023-04-22T11:48:00.719Z,967.50
2023-04-22T11:49:00.733Z,956.25
2023-04-22T11:50:00.706Z,1029.38
2023-04-22T11:51:00.766Z,939.38
2023-04-22T11:52:00.693Z,793.12
2023-04-22T11:53:00.695Z,635.62
2023-04-22T11:54:00.655Z,393.75
2023-04-22T11:55:00.681Z,225.00
2023-04-22T11:56:00.640Z,213.75
2023-04-22T11:57:00.640Z,303.75
2023-04-22T11:58:00.613Z,444.38
2023-04-22T11:59:00.608Z,590.62
2023-04-22T12:00:00.622Z,528.75
2023-04-22T12:01:00.605Z,669.38
2023-04-22T12:02:00.596Z,832.50
2023-04-22T12:03:00.794Z,916.88
2023-04-22T12:04:00.791Z,838.12
2023-04-22T12:05:00.576Z,1012.50
2023-04-22T12:06:00.564Z,1046.25
2023-04-22T12:07:00.528Z,995.62
2023-04-22T12:08:00.518Z,742.50
2023-04-22T12:09:00.518Z,990.00
2023-04-22T12:10:00.527Z,967.50
2023-04-22T12:11:00.493Z,956.25
2023-04-22T12:12:00.488Z,849.38
2023-04-22T12:13:00.482Z,770.62
2023-04-22T12:14:00.489Z,826.88
2023-04-22T12:15:00.478Z,877.50
2023-04-22T12:16:00.469Z,1018.12
2023-04-22T12:17:00.480Z,894.38
2023-04-22T12:18:00.440Z,793.12
2023-04-22T12:19:00.421Z,534.38
2023-04-22T12:20:00.428Z,466.88
2023-04-22T12:21:00.432Z,438.75
2023-04-22T12:22:00.392Z,371.25
2023-04-22T12:23:00.379Z,393.75
2023-04-22T12:24:00.393Z,888.75
2023-04-22T12:25:00.390Z,1158.75
2023-04-22T12:26:00.346Z,1091.25
2023-04-22T12:27:00.350Z,489.38
2023-04-22T12:28:00.338Z,641.25
2023-04-22T12:29:00.330Z,663.75
2023-04-22T12:30:00.375Z,849.38
2023-04-22T12:31:00.381Z,1091.25
2023-04-22T12:32:00.294Z,1113.75
2023-04-22T12:33:00.287Z,1113.75
2023-04-22T12:34:00.457Z,1046.25
2023-04-22T12:35:00.280Z,1108.12
2023-04-22T12:36:00.260Z,1040.62
2023-04-22T12:37:00.252Z,1063.12
2023-04-22T12:38:00.238Z,1158.75
2023-04-22T12:39:00.240Z,1040.62
2023-04-22T12:40:00.229Z,1029.38
2023-04-22T12:41:00.209Z,1080.00
2023-04-22T12:42:00.206Z,1057.50
2023-04-22T12:43:00.189Z,1001.25
2023-04-22T12:44:00.200Z,961.88
2023-04-22T12:45:00.189Z,922.50
2023-04-22T12:46:00.351Z,900.00
2023-04-22T12:47:00.232Z,922.50
2023-04-22T12:48:00.227Z,1029.38
2023-04-22T12:49:00.165Z,967.50
2023-04-22T12:50:00.188Z,1046.25
2023-04-22T12:51:00.155Z,1091.25
2023-04-22T12:52:00.152Z,1063.12